Time;durP1;ratioP1;P1;durP2;ratioP2;P2;SDS_P1;SDS_P2;PMS_P1;PMS_P2;Temp;Humidity;BMP_temperature;BMP_pressure;BME280_temperature;BME280_humidity;BME280_pressure;Samples;Min_cycle;Max_cycle;Signal;HPM_P1;HPM_P2
2023/02/04 00:00:01;;;;;;;18.60;4.63;;;;;;;3.46;100.00;102046.59;5084053;28;20044;-86
2023/02/04 00:02:28;;;;;;;20.50;4.45;;;;;;;3.43;100.00;102046.47;5084986;28;20047;-78
2023/02/04 00:04:54;;;;;;;20.58;4.93;;;;;;;3.38;100.00;102049.69;5079767;28;20089;-76
2023/02/04 00:07:21;;;;;;;22.67;4.68;;;;;;;3.33;100.00;102051.19;5087119;28;20484;-75
2023/02/04 00:09:48;;;;;;;14.68;4.30;;;;;;;3.26;100.00;102043.16;5090441;28;20511;-77
2023/02/04 00:12:15;;;;;;;14.10;4.53;;;;;;;3.21;100.00;102049.81;5091403;28;20490;-79
2023/02/04 00:14:42;;;;;;;17.98;6.50;;;;;;;3.19;100.00;102060.94;5088432;28;20109;-77
2023/02/04 00:17:10;;;;;;;20.40;2.97;;;;;;;3.19;100.00;102063.50;5086163;28;20697;-82
2023/02/04 00:19:36;;;;;;;13.65;2.55;;;;;;;3.20;100.00;102075.66;5068331;28;20067;-79
2023/02/04 00:22:05;;;;;;;13.32;4.25;;;;;;;3.17;100.00;102073.81;5082395;28;20050;-76
2023/02/04 00:24:32;;;;;;;32.50;6.82;;;;;;;3.15;100.00;102080.59;5088140;28;20052;-76
2023/02/04 00:26:58;;;;;;;11.55;3.20;;;;;;;3.13;100.00;102071.91;5101948;28;20044;-76
2023/02/04 00:29:25;;;;;;;13.63;3.45;;;;;;;3.09;100.00;102075.16;5086025;28;20044;-79
2023/02/04 00:31:51;;;;;;;16.73;3.70;;;;;;;3.06;100.00;102078.47;5085851;28;20055;-81
2023/02/04 00:34:18;;;;;;;17.60;3.83;;;;;;;3.02;100.00;102076.56;5085463;28;20048;-79
2023/02/04 00:36:45;;;;;;;14.73;2.63;;;;;;;3.03;100.00;102072.31;5087065;28;20372;-77
2023/02/04 00:39:12;;;;;;;8.10;2.47;;;;;;;3.02;100.00;102086.06;5086226;28;20048;-76
2023/02/04 00:41:39;;;;;;;8.65;2.58;;;;;;;2.96;100.00;102102.19;5086045;28;20490;-77
2023/02/04 00:44:05;;;;;;;16.02;4.93;;;;;;;2.91;100.00;102098.50;5102437;28;20040;-82
2023/02/04 00:46:31;;;;;;;15.98;2.55;;;;;;;2.92;100.00;102103.75;5069216;28;20040;-76
2023/02/04 00:48:58;;;;;;;14.90;3.05;;;;;;;2.96;100.00;102117.72;5085644;28;20032;-83
2023/02/04 00:51:24;;;;;;;11.25;3.67;;;;;;;2.99;100.00;102120.44;5069850;28;20075;-75
2023/02/04 00:53:51;;;;;;;13.77;4.30;;;;;;;2.93;100.00;102133.97;5087985;28;20053;-79
2023/02/04 00:56:17;;;;;;;13.68;2.63;;;;;;;3.00;100.00;102147.16;5091224;28;20074;-79
2023/02/04 00:58:44;;;;;;;11.95;2.80;;;;;;;3.18;100.00;102150.63;5094131;28;20146;-78
2023/02/04 01:01:10;;;;;;;19.60;4.32;;;;;;;3.34;100.00;102156.47;5067765;28;20048;-79
2023/02/04 01:03:36;;;;;;;13.57;2.58;;;;;;;3.50;100.00;102161.53;5079679;28;20060;-80
2023/02/04 01:06:03;;;;;;;16.90;3.05;;;;;;;3.64;100.00;102170.78;5082644;28;20047;-80
2023/02/04 01:08:29;;;;;;;7.10;1.35;;;;;;;3.77;100.00;102173.94;5084810;28;20445;-77
2023/02/04 01:10:56;;;;;;;4.95;1.65;;;;;;;3.87;100.00;102173.50;5063719;28;20044;-80
2023/02/04 01:13:22;;;;;;;9.25;1.75;;;;;;;3.92;100.00;102179.75;5067619;28;20048;-75
2023/02/04 01:15:49;;;;;;;18.42;2.42;;;;;;;3.95;100.00;102187.66;5083714;28;20217;-80
2023/02/04 01:18:15;;;;;;;8.38;0.88;;;;;;;4.00;100.00;102197.34;5078609;28;20044;-76
2023/02/04 01:20:42;;;;;;;2.25;0.88;;;;;;;4.02;100.00;102203.47;5103484;28;20048;-76
2023/02/04 01:23:08;;;;;;;2.75;0.75;;;;;;;4.00;100.00;102211.16;5081620;28;20064;-76
2023/02/04 01:25:35;;;;;;;3.50;0.63;;;;;;;4.01;100.00;102210.34;5083646;28;20758;-76
2023/02/04 01:28:07;;;;;;;3.33;0.63;;;;;;;4.01;100.00;102207.75;5066236;28;20052;-75
2023/02/04 01:30:34;;;;;;;7.25;1.08;;;;;;;3.97;100.00;102222.28;5088129;28;20040;-76
2023/02/04 01:33:00;;;;;;;0.98;0.55;;;;;;;3.92;100.00;102228.09;5070926;28;20047;-76
2023/02/04 01:35:27;;;;;;;2.55;0.47;;;;;;;3.91;100.00;102226.31;5081982;28;20139;-77
2023/02/04 01:37:53;;;;;;;4.38;0.85;;;;;;;3.90;100.00;102229.75;5069535;28;20513;-76
2023/02/04 01:40:20;;;;;;;2.63;0.52;;;;;;;3.90;100.00;102227.16;5049261;28;20040;-79
2023/02/04 01:42:47;;;;;;;2.95;0.40;;;;;;;3.90;100.00;102235.81;5076054;28;20379;-78
2023/02/04 01:45:17;;;;;;;1.67;0.50;;;;;;;3.90;100.00;102240.13;5089565;28;20494;-79
2023/02/04 01:47:45;;;;;;;3.05;1.08;;;;;;;3.91;100.00;102254.81;5088524;28;20090;-77
2023/02/04 01:50:17;;;;;;;1.70;0.30;;;;;;;3.92;100.00;102257.47;5091454;28;20128;-77
2023/02/04 01:52:45;;;;;;;2.08;0.35;;;;;;;3.93;100.00;102266.16;5074654;28;20078;-77
2023/02/04 01:59:46;;;;;;;2.92;0.85;;;;;;;3.98;100.00;102293.16;5025608;28;20057;-79
2023/02/04 02:02:45;;;;;;;4.43;0.80;;;;;;;4.00;100.00;102301.00;5073286;28;20040;-76
2023/02/04 02:05:20;;;;;;;1.95;0.80;;;;;;;4.02;100.00;102304.53;5081921;28;20083;-79
2023/02/04 02:07:48;;;;;;;1.33;0.38;;;;;;;3.99;100.00;102300.13;5094979;28;20040;-77
2023/02/04 02:10:16;;;;;;;1.40;0.40;;;;;;;4.00;100.00;102306.16;5096809;28;20040;-78
2023/02/04 02:12:43;;;;;;;1.77;0.90;;;;;;;3.98;100.00;102306.09;5094838;28;20044;-77
2023/02/04 02:15:13;;;;;;;1.05;0.50;;;;;;;3.98;100.00;102319.94;5089819;28;20079;-77
2023/02/04 02:17:40;;;;;;;0.68;0.32;;;;;;;3.97;100.00;102312.09;5086916;28;20485;-78
2023/02/04 02:20:10;;;;;;;2.60;0.57;;;;;;;3.95;100.00;102306.84;5070267;28;20170;-76
2023/02/04 02:23:04;;;;;;;3.15;0.38;;;;;;;3.93;100.00;102313.66;5085139;28;20062;-77
2023/02/04 02:25:31;;;;;;;1.35;0.32;;;;;;;3.93;100.00;102324.03;5088709;28;20047;-76
2023/02/04 02:28:01;;;;;;;0.30;0.22;;;;;;;3.88;100.00;102324.66;5083805;28;20048;-79
2023/02/04 02:30:29;;;;;;;2.97;0.43;;;;;;;3.85;100.00;102334.88;5100290;28;20041;-78
2023/02/04 02:32:56;;;;;;;0.50;0.50;;;;;;;3.76;100.00;102343.97;5099485;28;20139;-84
2023/02/04 02:35:23;;;;;;;1.23;0.30;;;;;;;3.61;100.00;102351.94;5070743;28;20067;-77
2023/02/04 02:37:49;;;;;;;0.88;0.47;;;;;;;3.42;100.00;102351.88;5084457;28;20048;-80
2023/02/04 02:40:16;;;;;;;1.20;0.10;;;;;;;3.23;100.00;102361.31;5086853;28;20383;-77
2023/02/04 02:42:44;;;;;;;0.57;0.38;;;;;;;3.18;100.00;102352.47;5087200;28;20138;-77
2023/02/04 02:45:23;;;;;;;1.05;0.38;;;;;;;3.22;100.00;102374.19;5085587;28;20048;-76
2023/02/04 02:47:51;;;;;;;3.38;0.47;;;;;;;3.26;100.00;102377.03;5074268;28;20058;-76
2023/02/04 02:50:21;;;;;;;1.23;0.32;;;;;;;3.29;100.00;102384.91;5086645;28;20044;-78
2023/02/04 02:52:47;;;;;;;2.47;0.43;;;;;;;3.32;100.00;102389.38;5092228;28;20920;-78
2023/02/04 02:55:17;;;;;;;2.20;0.50;;;;;;;3.34;100.00;102392.94;5086415;28;20048;-76
2023/02/04 02:57:49;;;;;;;2.97;0.30;;;;;;;3.31;100.00;102401.44;5079656;28;20040;-77
2023/02/04 03:00:18;;;;;;;1.65;0.32;;;;;;;3.23;98.57;102400.13;5067039;28;20375;-78
2023/02/04 03:03:00;;;;;;;2.65;0.80;;;;;;;3.01;99.97;102407.66;5079056;28;20222;-77
2023/02/04 03:05:32;;;;;;;0.35;0.35;;;;;;;2.80;100.00;102416.09;5081103;28;20655;-79
2023/02/04 03:07:59;;;;;;;1.30;0.20;;;;;;;2.61;100.00;102414.28;5063791;28;20048;-77
2023/02/04 03:10:26;;;;;;;0.85;0.38;;;;;;;2.40;100.00;102421.78;5090329;28;20514;-77
2023/02/04 03:12:52;;;;;;;0.98;0.60;;;;;;;2.26;100.00;102421.06;5084765;28;20048;-79
2023/02/04 03:15:19;;;;;;;2.03;0.50;;;;;;;2.21;100.00;102436.31;5071258;28;20043;-79
2023/02/04 03:17:46;;;;;;;1.08;0.50;;;;;;;2.20;100.00;102444.84;5073598;28;20044;-79
2023/02/04 03:20:15;;;;;;;2.70;0.63;;;;;;;2.21;100.00;102440.59;5084263;28;20563;-80
2023/02/04 03:22:42;;;;;;;0.93;0.60;;;;;;;2.17;100.00;102444.69;5084513;28;20062;-77
2023/02/04 03:25:08;;;;;;;1.42;0.45;;;;;;;2.13;100.00;102459.13;5086433;28;20059;-77
2023/02/04 03:27:35;;;;;;;0.50;0.50;;;;;;;2.02;100.00;102465.44;5070471;28;20155;-77
2023/02/04 03:30:01;;;;;;;1.10;0.32;;;;;;;1.92;100.00;102479.50;5076861;28;20044;-77
2023/02/04 03:32:28;;;;;;;0.40;0.40;;;;;;;1.83;100.00;102486.75;5093039;28;20401;-77
2023/02/04 03:34:54;;;;;;;3.72;0.88;;;;;;;1.78;100.00;102501.09;5072854;28;20490;-76
2023/02/04 03:37:20;;;;;;;0.65;0.55;;;;;;;1.64;100.00;102505.44;5089641;28;20493;-82
2023/02/04 03:39:47;;;;;;;1.27;0.50;;;;;;;1.59;100.00;102507.78;5093576;28;20044;-76
2023/02/04 03:42:14;;;;;;;1.00;0.57;;;;;;;1.69;100.00;102521.22;5068816;28;20049;-77
2023/02/04 03:44:40;;;;;;;1.05;0.65;;;;;;;1.86;100.00;102504.97;5093255;28;20051;-77
2023/02/04 03:47:06;;;;;;;0.63;0.63;;;;;;;2.01;100.00;102511.81;5093251;28;20044;-76
2023/02/04 03:49:34;;;;;;;0.43;0.43;;;;;;;2.08;100.00;102513.94;5076224;28;20538;-80
2023/02/04 03:52:01;;;;;;;0.60;0.50;;;;;;;2.14;100.00;102510.00;5092934;28;20149;-77
2023/02/04 03:54:28;;;;;;;0.60;0.60;;;;;;;2.21;100.00;102516.41;5098595;28;20056;-79
2023/02/04 03:56:55;;;;;;;1.65;0.50;;;;;;;2.29;100.00;102519.41;5091550;28;20094;-76
2023/02/04 03:59:21;;;;;;;2.92;0.52;;;;;;;2.34;100.00;102528.31;5089441;28;20048;-76
2023/02/04 04:01:47;;;;;;;0.52;0.52;;;;;;;2.40;100.00;102531.25;5088496;28;20040;-78
2023/02/04 04:04:14;;;;;;;2.20;0.47;;;;;;;2.48;100.00;102535.13;5084497;28;20057;-79
2023/02/04 04:06:40;;;;;;;0.63;0.40;;;;;;;2.54;100.00;102541.44;5086255;28;20478;-77
2023/02/04 04:09:07;;;;;;;1.13;0.70;;;;;;;2.58;100.00;102541.69;5085237;28;20085;-76
2023/02/04 04:11:33;;;;;;;0.90;0.40;;;;;;;2.63;100.00;102549.69;5088368;28;20044;-79
2023/02/04 04:14:00;;;;;;;0.43;0.28;;;;;;;2.68;100.00;102548.25;5086781;28;20040;-77
2023/02/04 04:16:27;;;;;;;1.13;0.40;;;;;;;2.69;100.00;102546.56;5072159;28;22224;-76
2023/02/04 04:18:54;;;;;;;0.40;0.40;;;;;;;2.60;100.00;102555.56;5085797;28;20040;-76
2023/02/04 04:21:20;;;;;;;9.45;1.73;;;;;;;2.48;100.00;102550.63;5086235;28;20052;-75
2023/02/04 04:23:47;;;;;;;0.50;0.50;;;;;;;2.31;100.00;102549.69;5080690;28;20048;-76
2023/02/04 04:26:13;;;;;;;2.03;0.75;;;;;;;2.13;100.00;102554.72;5088502;28;20040;-79
2023/02/04 04:28:39;;;;;;;2.17;0.68;;;;;;;1.98;100.00;102565.09;5085911;28;20413;-77
2023/02/04 04:31:06;;;;;;;1.20;0.30;;;;;;;1.86;100.00;102571.25;5084111;28;20053;-80
2023/02/04 04:33:33;;;;;;;0.82;0.43;;;;;;;1.78;100.00;102588.88;5104827;28;20520;-77
2023/02/04 04:35:59;;;;;;;1.50;0.55;;;;;;;1.67;100.00;102588.25;5094784;28;20090;-76
2023/02/04 04:38:26;;;;;;;1.20;0.40;;;;;;;1.59;100.00;102605.88;5090963;28;20506;-77
2023/02/04 04:40:52;;;;;;;2.03;0.65;;;;;;;1.49;100.00;102599.25;5087788;28;20043;-83
2023/02/04 04:43:19;;;;;;;2.83;0.65;;;;;;;1.39;100.00;102606.38;5090688;28;20530;-77
2023/02/04 04:45:46;;;;;;;0.98;0.63;;;;;;;1.25;100.00;102602.94;5090079;28;20538;-77
2023/02/04 04:48:12;;;;;;;1.30;0.90;;;;;;;1.17;100.00;102611.91;5081699;28;20041;-77
2023/02/04 04:50:39;;;;;;;1.05;0.75;;;;;;;1.12;100.00;102611.63;5074179;28;20040;-76
2023/02/04 04:53:09;;;;;;;0.98;0.73;;;;;;;1.05;100.00;102619.81;5089054;28;20059;-84
2023/02/04 04:55:37;;;;;;;0.80;0.60;;;;;;;1.00;100.00;102624.66;5092714;28;20043;-77
2023/02/04 04:58:05;;;;;;;1.30;0.50;;;;;;;0.98;100.00;102624.56;5088791;28;20094;-76
2023/02/04 05:00:32;;;;;;;1.38;0.77;;;;;;;0.95;100.00;102628.63;5069629;28;20047;-76
2023/02/04 05:02:59;;;;;;;2.30;0.80;;;;;;;0.86;100.00;102635.81;5079986;28;20127;-79
2023/02/04 05:05:25;;;;;;;2.45;1.25;;;;;;;0.80;100.00;102633.75;5071479;28;20040;-76
2023/02/04 05:07:52;;;;;;;3.67;0.77;;;;;;;0.80;100.00;102646.63;5087294;28;20054;-76
2023/02/04 05:10:19;;;;;;;0.77;0.63;;;;;;;0.74;100.00;102630.75;5083468;28;20044;-79
2023/02/04 05:12:45;;;;;;;0.65;0.60;;;;;;;0.73;100.00;102640.19;5084425;28;20044;-78
2023/02/04 05:15:12;;;;;;;4.78;0.70;;;;;;;0.75;100.00;102646.31;5107627;28;20040;-77
2023/02/04 05:17:38;;;;;;;1.30;0.93;;;;;;;0.72;100.00;102647.81;5092490;28;20040;-76
2023/02/04 05:20:05;;;;;;;1.75;0.80;;;;;;;0.65;100.00;102655.19;5089552;28;20043;-76
2023/02/04 05:22:31;;;;;;;0.85;0.70;;;;;;;0.55;100.00;102657.03;5080322;28;20071;-79
2023/02/04 05:24:58;;;;;;;2.22;1.25;;;;;;;0.50;100.00;102656.75;5083311;28;20415;-77
2023/02/04 05:27:24;;;;;;;1.30;1.15;;;;;;;0.44;100.00;102659.84;5091672;28;20478;-77
2023/02/04 05:29:51;;;;;;;0.68;0.68;;;;;;;0.44;100.00;102667.59;5076153;28;20055;-76
2023/02/04 05:32:17;;;;;;;1.35;0.90;;;;;;;0.42;100.00;102665.69;5073749;28;20443;-76
2023/02/04 05:34:44;;;;;;;1.38;0.95;;;;;;;0.41;100.00;102676.78;5087984;28;20044;-78
2023/02/04 05:37:10;;;;;;;0.85;0.85;;;;;;;0.40;100.00;102680.16;5071125;28;20048;-79
2023/02/04 05:39:36;;;;;;;1.10;1.08;;;;;;;0.36;100.00;102685.91;5085307;28;20040;-76
2023/02/04 05:42:03;;;;;;;1.08;0.80;;;;;;;0.30;100.00;102688.94;5088806;28;20036;-76
2023/02/04 05:44:29;;;;;;;4.00;1.00;;;;;;;0.27;100.00;102689.63;5092325;28;20051;-77
2023/02/04 05:46:56;;;;;;;2.25;0.70;;;;;;;0.23;100.00;102684.19;5086001;28;20040;-77
2023/02/04 05:49:23;;;;;;;3.15;1.00;;;;;;;0.24;100.00;102702.31;5079465;28;20045;-82
2023/02/04 05:51:50;;;;;;;1.35;0.73;;;;;;;0.29;100.00;102697.50;5091639;28;20036;-77
2023/02/04 05:54:19;;;;;;;1.42;0.90;;;;;;;0.32;100.00;102705.41;5076294;28;20059;-77
2023/02/04 05:56:47;;;;;;;1.08;0.95;;;;;;;0.32;100.00;102713.13;5086507;28;20091;-76
2023/02/04 05:59:14;;;;;;;1.88;1.15;;;;;;;0.31;100.00;102721.66;5069453;28;20502;-77
2023/02/04 06:01:40;;;;;;;3.90;0.90;;;;;;;0.28;100.00;102719.75;5078490;28;20036;-77
2023/02/04 06:04:07;;;;;;;2.25;1.15;;;;;;;0.33;100.00;102726.09;5086151;28;20055;-77
2023/02/04 06:06:33;;;;;;;2.92;1.20;;;;;;;0.37;100.00;102724.63;5089123;28;20048;-76
2023/02/04 06:09:00;;;;;;;0.98;0.60;;;;;;;0.40;100.00;102716.22;5096669;28;20056;-79
2023/02/04 06:11:26;;;;;;;1.83;1.20;;;;;;;0.39;100.00;102714.44;5092302;28;20057;-77
2023/02/04 06:13:53;;;;;;;3.40;1.02;;;;;;;0.38;100.00;102723.84;5071540;28;20044;-76
2023/02/04 06:16:19;;;;;;;0.95;0.85;;;;;;;0.36;100.00;102734.84;5082587;28;20040;-76
2023/02/04 06:18:45;;;;;;;0.73;0.73;;;;;;;0.33;100.00;102738.13;5083953;28;20051;-78
2023/02/04 06:21:12;;;;;;;1.33;1.00;;;;;;;0.34;100.00;102745.06;5086564;28;20055;-76
2023/02/04 06:23:38;;;;;;;2.38;0.98;;;;;;;0.38;100.00;102752.19;5088797;28;20060;-76
2023/02/04 06:26:05;;;;;;;2.13;1.13;;;;;;;0.40;100.00;102757.44;5089333;28;20047;-76
2023/02/04 06:28:31;;;;;;;1.20;1.08;;;;;;;0.46;100.00;102755.28;5091059;28;20037;-76
2023/02/04 06:30:58;;;;;;;4.22;1.15;;;;;;;0.46;100.00;102766.47;5084877;28;20040;-77
2023/02/04 06:33:24;;;;;;;1.48;1.17;;;;;;;0.42;100.00;102769.63;5091407;28;20050;-77
2023/02/04 06:35:51;;;;;;;1.50;1.23;;;;;;;0.41;100.00;102778.16;5072020;28;20052;-77
2023/02/04 06:38:19;;;;;;;3.95;1.42;;;;;;;0.42;100.00;102774.78;5085455;28;20131;-80
2023/02/04 06:40:48;;;;;;;3.38;1.95;;;;;;;0.43;100.00;102784.31;5066758;28;20057;-75
2023/02/04 06:43:17;;;;;;;1.55;1.05;;;;;;;0.40;100.00;102775.47;5081374;28;20045;-78
2023/02/04 06:45:43;;;;;;;2.50;1.08;;;;;;;0.41;100.00;102765.28;5083940;28;20055;-81
2023/02/04 06:48:10;;;;;;;0.90;0.90;;;;;;;0.45;100.00;102774.97;5081749;28;20054;-77
2023/02/04 06:50:38;;;;;;;1.15;1.05;;;;;;;0.47;100.00;102770.84;5076669;28;20060;-77
2023/02/04 06:53:05;;;;;;;1.13;1.00;;;;;;;0.52;100.00;102772.81;5078465;28;20040;-79
2023/02/04 06:55:31;;;;;;;3.05;1.23;;;;;;;0.56;100.00;102783.44;5081121;28;20055;-77
2023/02/04 06:57:58;;;;;;;1.10;1.00;;;;;;;0.53;100.00;102790.09;5078487;28;20063;-81
2023/02/04 07:00:25;;;;;;;5.15;1.38;;;;;;;0.51;100.00;102792.56;5087216;28;20444;-77
2023/02/04 07:02:52;;;;;;;1.13;0.93;;;;;;;0.48;100.00;102806.13;5077085;28;20380;-77
2023/02/04 07:05:18;;;;;;;1.65;0.95;;;;;;;0.42;100.00;102812.56;5081037;28;20036;-76
2023/02/04 07:07:45;;;;;;;2.22;1.25;;;;;;;0.36;100.00;102825.03;5080741;28;20040;-77
2023/02/04 07:10:12;;;;;;;2.45;1.95;;;;;;;0.35;100.00;102823.22;5086616;28;20044;-78
2023/02/04 07:12:38;;;;;;;1.15;1.15;;;;;;;0.35;100.00;102821.53;5087474;28;20521;-79
2023/02/04 07:15:06;;;;;;;1.10;1.02;;;;;;;0.44;100.00;102831.56;5059439;28;20510;-78
2023/02/04 07:17:33;;;;;;;1.27;1.27;;;;;;;0.58;100.00;102833.41;5081273;28;20138;-77
2023/02/04 07:19:59;;;;;;;1.35;1.25;;;;;;;0.74;100.00;102829.28;5088541;28;20143;-76
2023/02/04 07:22:26;;;;;;;3.65;1.13;;;;;;;0.89;100.00;102834.56;5088967;28;20059;-78
2023/02/04 07:24:52;;;;;;;2.40;1.60;;;;;;;1.06;100.00;102833.09;5085991;28;20049;-79
2023/02/04 07:27:19;;;;;;;1.63;1.17;;;;;;;1.20;100.00;102839.13;5087797;28;20041;-79
2023/02/04 07:29:45;;;;;;;3.35;0.88;;;;;;;1.31;100.00;102838.13;5068663;28;20123;-78
2023/02/04 07:32:12;;;;;;;1.52;1.20;;;;;;;1.37;100.00;102845.38;5064865;28;20066;-76
2023/02/04 07:34:38;;;;;;;0.90;0.90;;;;;;;1.38;100.00;102855.78;5066168;28;20665;-76
2023/02/04 07:37:05;;;;;;;2.55;1.20;;;;;;;1.38;100.00;102852.31;5089613;28;20564;-78
2023/02/04 07:39:31;;;;;;;7.10;1.23;;;;;;;1.36;100.00;102854.81;5080509;28;20147;-76
2023/02/04 07:41:57;;;;;;;2.20;1.38;;;;;;;1.36;100.00;102854.81;5083410;28;20048;-77
2023/02/04 07:44:24;;;;;;;3.50;1.50;;;;;;;1.38;100.00;102855.78;5083058;28;20040;-75
2023/02/04 07:46:50;;;;;;;1.15;0.77;;;;;;;1.39;100.00;102860.16;5064872;28;20040;-77
2023/02/04 07:49:17;;;;;;;2.63;1.02;;;;;;;1.43;100.00;102869.88;5089214;28;20040;-78
2023/02/04 07:51:44;;;;;;;4.50;1.15;;;;;;;1.44;100.00;102873.38;5077673;28;20040;-82
2023/02/04 07:54:10;;;;;;;5.93;1.25;;;;;;;1.45;100.00;102878.63;5062045;28;20051;-80
2023/02/04 07:56:37;;;;;;;3.83;1.75;;;;;;;1.46;100.00;102880.41;5086615;28;20689;-77
2023/02/04 07:59:03;;;;;;;13.15;7.68;;;;;;;1.46;100.00;102880.41;5098688;28;20035;-77
2023/02/04 08:01:30;;;;;;;1.15;1.10;;;;;;;1.47;100.00;102884.78;5097764;28;20046;-76
2023/02/04 08:03:56;;;;;;;1.35;1.08;;;;;;;1.46;100.00;102893.31;5091758;28;20044;-77
2023/02/04 08:06:22;;;;;;;0.85;0.85;;;;;;;1.43;100.00;102887.06;5089665;28;20036;-77
2023/02/04 08:08:49;;;;;;;1.25;1.10;;;;;;;1.40;100.00;102889.47;5085668;28;20036;-78
2023/02/04 08:11:15;;;;;;;2.10;1.02;;;;;;;1.39;100.00;102883.38;5091313;28;20048;-77
2023/02/04 08:13:42;;;;;;;1.20;1.20;;;;;;;1.39;100.00;102895.41;5096056;28;20126;-78
2023/02/04 08:16:08;;;;;;;2.58;1.60;;;;;;;1.43;100.00;102887.94;5089323;28;20040;-78
2023/02/04 08:18:35;;;;;;;1.95;1.27;;;;;;;1.48;100.00;102888.25;5088051;28;20054;-76
2023/02/04 08:21:03;;;;;;;2.92;2.17;;;;;;;1.55;100.00;102895.63;5091876;28;20123;-76
2023/02/04 08:23:30;;;;;;;9.05;5.30;;;;;;;1.60;100.00;102895.88;5070689;28;20078;-77
2023/02/04 08:25:56;;;;;;;2.35;1.65;;;;;;;1.61;100.00;102895.97;5106444;28;20390;-77
2023/02/04 08:28:23;;;;;;;2.42;1.70;;;;;;;1.59;100.00;102894.09;5091473;28;20044;-76
2023/02/04 08:30:49;;;;;;;3.83;2.10;;;;;;;1.56;100.00;102897.38;5093443;28;20044;-77
2023/02/04 08:33:16;;;;;;;2.13;1.95;;;;;;;1.53;100.00;102892.03;5094269;28;20049;-79
2023/02/04 08:35:42;;;;;;;2.67;1.85;;;;;;;1.51;100.00;102890.13;5091116;28;20051;-77
2023/02/04 08:38:09;;;;;;;4.38;1.75;;;;;;;1.46;100.00;102888.16;5075073;28;20052;-78
2023/02/04 08:40:36;;;;;;;4.85;1.88;;;;;;;1.40;100.00;102895.50;5094221;28;20115;-77
2023/02/04 08:43:03;;;;;;;1.25;1.13;;;;;;;1.36;100.00;102903.84;5090022;28;20529;-77
2023/02/04 08:45:29;;;;;;;2.00;1.55;;;;;;;1.32;100.00;102910.47;5085748;28;20079;-76
2023/02/04 08:47:56;;;;;;;4.05;1.48;;;;;;;1.31;100.00;102912.97;5082459;28;20475;-78
2023/02/04 08:50:22;;;;;;;2.17;1.50;;;;;;;1.25;100.00;102920.31;5090479;28;20056;-77
2023/02/04 08:52:49;;;;;;;3.75;1.63;;;;;;;1.23;100.00;102925.38;5092415;28;20490;-80
2023/02/04 08:55:15;;;;;;;3.30;1.60;;;;;;;1.26;100.00;102935.88;5088634;28;20044;-78
2023/02/04 08:57:41;;;;;;;1.70;1.30;;;;;;;1.27;100.00;102932.50;5095158;28;20075;-79
2023/02/04 09:00:10;;;;;;;2.95;1.38;;;;;;;1.30;100.00;102931.81;5098434;28;20452;-82
2023/02/04 09:02:37;;;;;;;2.28;1.55;;;;;;;1.35;100.00;102934.72;5096339;28;20028;-78
2023/02/04 09:05:04;;;;;;;6.70;3.25;;;;;;;1.42;100.00;102934.31;5089570;28;20044;-77
2023/02/04 09:07:30;;;;;;;3.33;1.80;;;;;;;1.46;100.00;102944.94;5078242;28;20036;-78
2023/02/04 09:09:56;;;;;;;1.35;1.25;;;;;;;1.57;100.00;102937.88;5092241;28;20101;-77
2023/02/04 09:12:23;;;;;;;3.10;1.35;;;;;;;1.67;100.00;102947.16;5092178;28;20047;-79
2023/02/04 09:14:49;;;;;;;2.67;1.23;;;;;;;1.73;100.00;102944.06;5086611;28;20044;-79
2023/02/04 09:17:16;;;;;;;1.92;1.23;;;;;;;1.78;100.00;102951.28;5085164;28;20071;-77
2023/02/04 09:19:43;;;;;;;2.28;1.10;;;;;;;1.85;99.50;102956.84;5079897;28;20948;-80
2023/02/04 09:22:12;;;;;;;4.22;1.58;;;;;;;1.86;98.91;102964.69;5089295;28;20138;-79
2023/02/04 09:24:41;;;;;;;1.98;1.10;;;;;;;1.90;97.50;102958.03;5085309;28;20058;-78
2023/02/04 09:27:07;;;;;;;0.93;0.60;;;;;;;1.98;94.65;102967.16;5086053;28;20051;-80
2023/02/04 09:29:33;;;;;;;1.85;0.75;;;;;;;2.04;95.21;102970.16;5091392;28;20054;-76
2023/02/04 09:32:00;;;;;;;1.38;0.88;;;;;;;2.16;93.66;102970.03;5089063;28;20044;-78
2023/02/04 09:34:26;;;;;;;1.15;0.90;;;;;;;2.26;93.96;102974.09;5090053;28;20046;-78
2023/02/04 09:36:53;;;;;;;1.20;0.82;;;;;;;2.30;93.09;102971.78;5087244;28;20048;-77
2023/02/04 09:39:19;;;;;;;4.25;3.05;;;;;;;2.30;92.86;102971.78;5079479;28;20055;-77
2023/02/04 09:41:46;;;;;;;0.77;0.70;;;;;;;2.27;92.02;102976.75;5081308;28;20418;-76
2023/02/04 09:44:17;;;;;;;0.80;0.65;;;;;;;2.29;90.58;102979.44;5082185;28;20041;-75
2023/02/04 09:46:53;;;;;;;1.80;0.55;;;;;;;2.31;90.10;102994.25;5070668;28;20426;-79
2023/02/04 09:49:19;;;;;;;0.90;0.65;;;;;;;2.36;88.89;102986.78;5069181;28;20094;-77
2023/02/04 09:51:49;;;;;;;0.88;0.60;;;;;;;2.41;86.70;102992.22;5082909;28;20047;-78
2023/02/04 09:54:19;;;;;;;1.13;0.75;;;;;;;2.45;87.42;102989.03;5073439;28;20040;-75
2023/02/04 09:56:46;;;;;;;1.30;0.50;;;;;;;2.46;87.00;102996.00;5087093;28;20044;-78
2023/02/04 09:59:20;;;;;;;0.82;0.70;;;;;;;2.47;87.38;103002.97;5084144;28;20043;-77
2023/02/04 10:02:00;;;;;;;1.75;0.55;;;;;;;2.47;87.46;103002.97;5082700;28;20141;-80
2023/02/04 10:04:27;;;;;;;0.38;0.30;;;;;;;2.54;88.11;103010.28;5073391;28;20040;-76
2023/02/04 10:06:57;;;;;;;1.85;1.13;;;;;;;2.70;88.05;103012.16;5090419;28;20476;-80
2023/02/04 10:09:24;;;;;;;1.20;0.80;;;;;;;2.90;87.81;103015.94;5081889;28;20052;-78
2023/02/04 10:11:50;;;;;;;1.52;0.88;;;;;;;3.05;86.77;103025.44;5077438;28;20089;-79
2023/02/04 10:14:23;;;;;;;2.35;1.77;;;;;;;3.13;86.26;103021.63;5090398;28;20059;-76
2023/02/04 10:16:57;;;;;;;1.85;0.60;;;;;;;3.24;85.29;103017.97;5080245;28;21624;-78
2023/02/04 10:19:24;;;;;;;;;;;;;;;3.43;82.88;103029.44;5089185;28;20036;-77
2023/02/04 10:21:50;;;;;;;1.52;0.60;;;;;;;3.56;81.09;103028.41;5066462;28;19920;-78
2023/02/04 10:24:21;;;;;;;2.22;0.32;;;;;;;3.63;80.74;103034.03;5079190;28;20053;-79
2023/02/04 10:26:48;;;;;;;3.78;0.50;;;;;;;3.50;79.18;103026.38;5067647;28;20474;-78
2023/02/04 10:29:19;;;;;;;2.72;0.98;;;;;;;3.40;80.10;103042.16;5083791;28;20037;-79
2023/02/04 10:31:49;;;;;;;3.13;0.85;;;;;;;3.38;81.08;103041.22;5080230;28;20069;-77
2023/02/04 10:34:20;;;;;;;2.20;0.63;;;;;;;3.44;81.02;103031.19;5071382;28;20113;-80
2023/02/04 10:36:51;;;;;;;4.07;0.40;;;;;;;3.59;81.41;103039.84;5084343;28;20177;-78
2023/02/04 10:39:29;;;;;;;0.88;0.70;;;;;;;3.76;80.51;103039.94;5083035;28;20047;-78
2023/02/04 10:41:58;;;;;;;1.20;0.75;;;;;;;3.83;79.74;103044.66;5070501;28;20052;-83
2023/02/04 10:44:35;;;;;;;0.82;0.50;;;;;;;3.82;80.07;103050.69;5102339;28;20757;-78
2023/02/04 10:47:07;;;;;;;1.17;0.50;;;;;;;3.87;80.09;103046.66;5086050;28;20048;-78
2023/02/04 10:49:34;;;;;;;1.13;0.80;;;;;;;3.89;78.15;103047.59;5103242;28;20051;-77
2023/02/04 10:52:02;;;;;;;1.90;0.40;;;;;;;3.96;79.33;103043.66;5083068;28;20040;-79
2023/02/04 10:54:36;;;;;;;0.98;0.85;;;;;;;4.16;78.64;103047.41;5084266;28;20063;-81
2023/02/04 10:57:28;;;;;;;2.63;0.45;;;;;;;4.46;77.79;103044.72;5085958;28;20044;-78
2023/02/04 10:59:59;;;;;;;0.75;0.70;;;;;;;4.78;77.11;103042.97;5083648;28;20047;-78
2023/02/04 11:03:02;;;;;;;2.08;0.70;;;;;;;4.95;75.22;103042.16;5075877;28;20047;-78
2023/02/04 11:05:34;;;;;;;2.83;0.98;;;;;;;4.94;75.63;103037.78;5089672;28;20040;-76
2023/02/04 11:08:02;;;;;;;1.02;0.68;;;;;;;4.88;75.38;103042.66;5083619;28;20045;-77
2023/02/04 11:10:32;;;;;;;0.38;0.38;;;;;;;4.77;75.64;103043.75;5083841;28;20120;-76
2023/02/04 11:13:00;;;;;;;5.78;0.75;;;;;;;4.67;75.71;103037.22;5096084;28;20040;-76
2023/02/04 11:15:49;;;;;;;1.88;0.45;;;;;;;4.55;75.74;103046.91;5081425;28;20097;-79
2023/02/04 11:18:21;;;;;;;2.00;0.43;;;;;;;4.40;76.36;103046.97;5086560;28;20470;-76
2023/02/04 11:20:51;;;;;;;2.15;0.70;;;;;;;4.27;76.21;103046.28;5086479;28;20370;-77
2023/02/04 11:23:27;;;;;;;1.05;0.80;;;;;;;4.19;77.35;103054.47;5091968;28;20048;-76
2023/02/04 11:26:09;;;;;;;2.60;0.60;;;;;;;4.12;76.39;103054.09;5084081;28;20097;-77
2023/02/04 11:29:00;;;;;;;1.75;0.52;;;;;;;4.19;77.83;103050.16;5076462;28;20044;-79
2023/02/04 11:31:32;;;;;;;1.00;0.80;;;;;;;4.19;78.05;103050.16;5086556;28;20068;-77
2023/02/04 11:34:25;;;;;;;2.83;0.73;;;;;;;4.29;77.12;103054.16;5076499;28;20577;-80